sensor_id;sensor_type;location;lat;lon;timestamp;P1;durP1;ratioP1;P2;durP2;ratioP2
13951;SDS011;39535;52.192;9.886;2023-05-07T00:02:26;25.60;;;23.10;;
13951;SDS011;39535;52.192;9.886;2023-05-07T00:04:52;26.03;;;23.27;;
13951;SDS011;39535;52.192;9.886;2023-05-07T00:07:19;24.53;;;22.13;;
13951;SDS011;39535;52.192;9.886;2023-05-07T00:09:45;27.80;;;24.80;;
13951;SDS011;39535;52.192;9.886;2023-05-07T00:12:11;24.93;;;22.43;;
13951;SDS011;39535;52.192;9.886;2023-05-07T00:14:38;26.37;;;23.37;;
13951;SDS011;39535;52.192;9.886;2023-05-07T00:17:05;25.73;;;23.17;;
13951;SDS011;39535;52.192;9.886;2023-05-07T00:19:32;27.50;;;24.53;;
13951;SDS011;39535;52.192;9.886;2023-05-07T00:21:58;30.67;;;24.33;;
13951;SDS011;39535;52.192;9.886;2023-05-07T00:24:24;28.90;;;24.07;;
13951;SDS011;39535;52.192;9.886;2023-05-07T00:26:51;27.37;;;24.27;;
13951;SDS011;39535;52.192;9.886;2023-05-07T00:29:17;32.43;;;24.20;;
13951;SDS011;39535;52.192;9.886;2023-05-07T00:31:44;33.97;;;24.93;;
13951;SDS011;39535;52.192;9.886;2023-05-07T00:34:11;28.37;;;23.30;;
13951;SDS011;39535;52.192;9.886;2023-05-07T00:36:37;27.27;;;23.40;;
13951;SDS011;39535;52.192;9.886;2023-05-07T00:39:04;28.27;;;23.97;;
13951;SDS011;39535;52.192;9.886;2023-05-07T00:41:30;26.70;;;23.33;;
13951;SDS011;39535;52.192;9.886;2023-05-07T00:43:56;26.93;;;23.07;;
13951;SDS011;39535;52.192;9.886;2023-05-07T00:46:23;26.17;;;23.43;;
13951;SDS011;39535;52.192;9.886;2023-05-07T00:48:50;29.30;;;23.57;;
13951;SDS011;39535;52.192;9.886;2023-05-07T00:51:18;25.80;;;22.70;;
13951;SDS011;39535;52.192;9.886;2023-05-07T00:53:45;24.73;;;22.27;;
13951;SDS011;39535;52.192;9.886;2023-05-07T00:56:12;27.30;;;22.67;;
13951;SDS011;39535;52.192;9.886;2023-05-07T00:58:39;28.40;;;24.43;;
13951;SDS011;39535;52.192;9.886;2023-05-07T01:01:06;30.20;;;23.77;;
13951;SDS011;39535;52.192;9.886;2023-05-07T01:03:32;25.47;;;22.73;;
13951;SDS011;39535;52.192;9.886;2023-05-07T01:05:59;31.40;;;23.50;;
13951;SDS011;39535;52.192;9.886;2023-05-07T01:08:28;30.03;;;24.07;;
13951;SDS011;39535;52.192;9.886;2023-05-07T01:10:56;29.87;;;24.80;;
13951;SDS011;39535;52.192;9.886;2023-05-07T01:13:23;26.17;;;23.10;;
13951;SDS011;39535;52.192;9.886;2023-05-07T01:15:50;28.53;;;23.37;;
13951;SDS011;39535;52.192;9.886;2023-05-07T01:18:17;32.07;;;24.03;;
13951;SDS011;39535;52.192;9.886;2023-05-07T01:20:43;26.90;;;23.37;;
13951;SDS011;39535;52.192;9.886;2023-05-07T01:23:12;31.67;;;24.57;;
13951;SDS011;39535;52.192;9.886;2023-05-07T01:25:38;28.50;;;22.97;;
13951;SDS011;39535;52.192;9.886;2023-05-07T01:28:05;30.83;;;24.07;;
13951;SDS011;39535;52.192;9.886;2023-05-07T01:30:31;25.23;;;22.63;;
13951;SDS011;39535;52.192;9.886;2023-05-07T01:33:01;31.20;;;24.60;;
13951;SDS011;39535;52.192;9.886;2023-05-07T01:35:32;27.03;;;23.13;;
13951;SDS011;39535;52.192;9.886;2023-05-07T01:38:03;27.37;;;23.00;;
13951;SDS011;39535;52.192;9.886;2023-05-07T01:40:32;24.27;;;21.77;;
13951;SDS011;39535;52.192;9.886;2023-05-07T01:43:00;25.30;;;22.47;;
13951;SDS011;39535;52.192;9.886;2023-05-07T01:45:27;24.13;;;20.67;;
13951;SDS011;39535;52.192;9.886;2023-05-07T01:47:54;22.33;;;19.23;;
13951;SDS011;39535;52.192;9.886;2023-05-07T01:50:21;21.27;;;19.07;;
13951;SDS011;39535;52.192;9.886;2023-05-07T01:52:49;23.17;;;18.23;;
13951;SDS011;39535;52.192;9.886;2023-05-07T01:55:16;21.43;;;19.13;;
13951;SDS011;39535;52.192;9.886;2023-05-07T01:57:44;20.70;;;17.63;;
13951;SDS011;39535;52.192;9.886;2023-05-07T02:00:11;18.47;;;16.73;;
13951;SDS011;39535;52.192;9.886;2023-05-07T02:02:37;19.10;;;17.23;;
13951;SDS011;39535;52.192;9.886;2023-05-07T02:05:04;17.67;;;15.97;;
13951;SDS011;39535;52.192;9.886;2023-05-07T02:07:33;18.43;;;16.73;;
13951;SDS011;39535;52.192;9.886;2023-05-07T02:10:00;18.07;;;16.33;;
13951;SDS011;39535;52.192;9.886;2023-05-07T02:12:26;16.37;;;14.97;;
13951;SDS011;39535;52.192;9.886;2023-05-07T02:14:54;17.53;;;15.93;;
13951;SDS011;39535;52.192;9.886;2023-05-07T02:17:20;16.63;;;14.77;;
13951;SDS011;39535;52.192;9.886;2023-05-07T02:19:46;16.40;;;14.83;;
13951;SDS011;39535;52.192;9.886;2023-05-07T02:22:13;16.10;;;14.57;;
13951;SDS011;39535;52.192;9.886;2023-05-07T02:24:39;14.90;;;13.60;;
13951;SDS011;39535;52.192;9.886;2023-05-07T02:27:05;15.60;;;14.20;;
13951;SDS011;39535;52.192;9.886;2023-05-07T02:29:32;16.00;;;14.60;;
13951;SDS011;39535;52.192;9.886;2023-05-07T02:31:59;15.40;;;14.10;;
13951;SDS011;39535;52.192;9.886;2023-05-07T02:34:28;15.43;;;14.13;;
13951;SDS011;39535;52.192;9.886;2023-05-07T02:36:54;15.30;;;14.10;;
13951;SDS011;39535;52.192;9.886;2023-05-07T02:39:20;15.43;;;14.03;;
13951;SDS011;39535;52.192;9.886;2023-05-07T02:41:47;15.37;;;14.10;;
13951;SDS011;39535;52.192;9.886;2023-05-07T02:44:13;16.17;;;14.53;;
13951;SDS011;39535;52.192;9.886;2023-05-07T02:46:39;15.20;;;13.90;;
13951;SDS011;39535;52.192;9.886;2023-05-07T02:49:07;14.83;;;13.63;;
13951;SDS011;39535;52.192;9.886;2023-05-07T02:51:33;15.17;;;13.90;;
13951;SDS011;39535;52.192;9.886;2023-05-07T02:54:00;15.50;;;14.10;;
13951;SDS011;39535;52.192;9.886;2023-05-07T02:56:26;14.53;;;13.27;;
13951;SDS011;39535;52.192;9.886;2023-05-07T02:58:53;15.67;;;14.37;;
13951;SDS011;39535;52.192;9.886;2023-05-07T03:01:19;15.87;;;14.50;;
13951;SDS011;39535;52.192;9.886;2023-05-07T03:03:45;15.33;;;14.03;;
13951;SDS011;39535;52.192;9.886;2023-05-07T03:06:13;16.03;;;14.70;;
13951;SDS011;39535;52.192;9.886;2023-05-07T03:08:40;16.40;;;14.97;;
13951;SDS011;39535;52.192;9.886;2023-05-07T03:11:06;16.13;;;14.83;;
13951;SDS011;39535;52.192;9.886;2023-05-07T03:13:33;17.07;;;15.57;;
13951;SDS011;39535;52.192;9.886;2023-05-07T03:15:59;15.07;;;13.87;;
13951;SDS011;39535;52.192;9.886;2023-05-07T03:18:25;15.50;;;14.10;;
13951;SDS011;39535;52.192;9.886;2023-05-07T03:20:51;15.73;;;14.30;;
13951;SDS011;39535;52.192;9.886;2023-05-07T03:23:19;15.80;;;14.33;;
13951;SDS011;39535;52.192;9.886;2023-05-07T03:25:45;16.33;;;14.93;;
13951;SDS011;39535;52.192;9.886;2023-05-07T03:28:12;15.00;;;13.80;;
13951;SDS011;39535;52.192;9.886;2023-05-07T03:30:38;16.57;;;15.03;;
13951;SDS011;39535;52.192;9.886;2023-05-07T03:33:04;15.27;;;13.97;;
13951;SDS011;39535;52.192;9.886;2023-05-07T03:35:31;15.63;;;14.23;;
13951;SDS011;39535;52.192;9.886;2023-05-07T03:37:57;15.47;;;14.17;;
13951;SDS011;39535;52.192;9.886;2023-05-07T03:40:25;15.63;;;14.33;;
13951;SDS011;39535;52.192;9.886;2023-05-07T03:42:51;15.80;;;14.20;;
13951;SDS011;39535;52.192;9.886;2023-05-07T03:45:18;14.93;;;13.63;;
13951;SDS011;39535;52.192;9.886;2023-05-07T03:47:44;15.70;;;14.30;;
13951;SDS011;39535;52.192;9.886;2023-05-07T03:50:10;14.43;;;12.97;;
13951;SDS011;39535;52.192;9.886;2023-05-07T03:52:37;15.10;;;13.77;;
13951;SDS011;39535;52.192;9.886;2023-05-07T03:55:03;14.47;;;13.17;;
13951;SDS011;39535;52.192;9.886;2023-05-07T03:57:32;14.23;;;13.03;;
13951;SDS011;39535;52.192;9.886;2023-05-07T03:59:58;15.13;;;13.57;;
13951;SDS011;39535;52.192;9.886;2023-05-07T04:02:24;14.57;;;13.43;;
13951;SDS011;39535;52.192;9.886;2023-05-07T04:04:51;14.53;;;13.33;;
13951;SDS011;39535;52.192;9.886;2023-05-07T04:07:18;13.73;;;12.63;;
13951;SDS011;39535;52.192;9.886;2023-05-07T04:09:45;13.73;;;12.37;;
13951;SDS011;39535;52.192;9.886;2023-05-07T04:12:11;14.87;;;13.43;;
13951;SDS011;39535;52.192;9.886;2023-05-07T04:14:38;14.83;;;13.53;;
13951;SDS011;39535;52.192;9.886;2023-05-07T04:17:05;13.93;;;12.73;;
13951;SDS011;39535;52.192;9.886;2023-05-07T04:19:33;14.07;;;12.93;;
13951;SDS011;39535;52.192;9.886;2023-05-07T04:21:59;13.83;;;12.73;;
13951;SDS011;39535;52.192;9.886;2023-05-07T04:24:26;12.90;;;11.87;;
13951;SDS011;39535;52.192;9.886;2023-05-07T04:26:52;13.90;;;12.73;;
13951;SDS011;39535;52.192;9.886;2023-05-07T04:29:20;13.30;;;12.10;;
13951;SDS011;39535;52.192;9.886;2023-05-07T04:31:47;13.83;;;12.73;;
13951;SDS011;39535;52.192;9.886;2023-05-07T04:34:14;14.13;;;12.93;;
13951;SDS011;39535;52.192;9.886;2023-05-07T04:36:41;13.33;;;12.23;;
13951;SDS011;39535;52.192;9.886;2023-05-07T04:39:08;13.23;;;11.93;;
13951;SDS011;39535;52.192;9.886;2023-05-07T04:41:35;13.43;;;12.33;;
13951;SDS011;39535;52.192;9.886;2023-05-07T04:44:02;14.13;;;12.93;;
13951;SDS011;39535;52.192;9.886;2023-05-07T04:46:29;14.00;;;12.60;;
13951;SDS011;39535;52.192;9.886;2023-05-07T04:48:57;13.97;;;12.77;;
13951;SDS011;39535;52.192;9.886;2023-05-07T04:51:23;12.20;;;11.10;;
13951;SDS011;39535;52.192;9.886;2023-05-07T04:53:50;13.27;;;12.17;;
13951;SDS011;39535;52.192;9.886;2023-05-07T04:56:16;13.67;;;12.57;;
13951;SDS011;39535;52.192;9.886;2023-05-07T04:58:42;12.63;;;11.63;;
13951;SDS011;39535;52.192;9.886;2023-05-07T05:01:09;13.13;;;12.03;;
13951;SDS011;39535;52.192;9.886;2023-05-07T05:03:35;13.20;;;12.07;;
13951;SDS011;39535;52.192;9.886;2023-05-07T05:06:03;13.43;;;12.13;;
13951;SDS011;39535;52.192;9.886;2023-05-07T05:08:30;14.30;;;13.00;;
13951;SDS011;39535;52.192;9.886;2023-05-07T05:10:57;13.70;;;12.50;;
13951;SDS011;39535;52.192;9.886;2023-05-07T05:13:23;12.27;;;11.17;;
13951;SDS011;39535;52.192;9.886;2023-05-07T05:15:49;12.70;;;11.77;;
13951;SDS011;39535;52.192;9.886;2023-05-07T05:18:16;13.07;;;11.70;;
13951;SDS011;39535;52.192;9.886;2023-05-07T05:20:42;12.77;;;11.67;;
13951;SDS011;39535;52.192;9.886;2023-05-07T05:23:10;12.73;;;11.60;;
13951;SDS011;39535;52.192;9.886;2023-05-07T05:25:36;12.43;;;11.37;;
13951;SDS011;39535;52.192;9.886;2023-05-07T05:28:04;12.17;;;11.07;;
13951;SDS011;39535;52.192;9.886;2023-05-07T05:30:30;12.57;;;11.47;;
13951;SDS011;39535;52.192;9.886;2023-05-07T05:32:56;11.73;;;10.83;;
13951;SDS011;39535;52.192;9.886;2023-05-07T05:35:23;11.47;;;10.47;;
13951;SDS011;39535;52.192;9.886;2023-05-07T05:37:49;11.90;;;10.90;;
13951;SDS011;39535;52.192;9.886;2023-05-07T05:40:17;10.80;;;9.90;;
13951;SDS011;39535;52.192;9.886;2023-05-07T05:42:43;10.93;;;10.03;;
13951;SDS011;39535;52.192;9.886;2023-05-07T05:45:10;10.30;;;9.50;;
13951;SDS011;39535;52.192;9.886;2023-05-07T05:47:37;10.57;;;9.77;;
13951;SDS011;39535;52.192;9.886;2023-05-07T05:50:04;10.47;;;9.57;;
13951;SDS011;39535;52.192;9.886;2023-05-07T05:52:31;10.97;;;10.13;;
13951;SDS011;39535;52.192;9.886;2023-05-07T05:54:57;11.20;;;10.33;;
13951;SDS011;39535;52.192;9.886;2023-05-07T05:57:25;10.50;;;9.70;;
13951;SDS011;39535;52.192;9.886;2023-05-07T05:59:51;11.17;;;10.30;;
13951;SDS011;39535;52.192;9.886;2023-05-07T06:02:18;11.53;;;10.63;;
13951;SDS011;39535;52.192;9.886;2023-05-07T06:04:44;9.83;;;9.13;;
13951;SDS011;39535;52.192;9.886;2023-05-07T06:07:11;9.77;;;8.97;;
13951;SDS011;39535;52.192;9.886;2023-05-07T06:09:37;9.90;;;9.10;;
13951;SDS011;39535;52.192;9.886;2023-05-07T06:12:03;9.80;;;9.00;;
13951;SDS011;39535;52.192;9.886;2023-05-07T06:14:32;10.37;;;9.57;;
13951;SDS011;39535;52.192;9.886;2023-05-07T06:16:58;9.70;;;8.90;;
13951;SDS011;39535;52.192;9.886;2023-05-07T06:19:24;10.57;;;9.77;;
13951;SDS011;39535;52.192;9.886;2023-05-07T06:21:53;10.30;;;9.30;;
13951;SDS011;39535;52.192;9.886;2023-05-07T06:24:21;8.77;;;8.03;;
13951;SDS011;39535;52.192;9.886;2023-05-07T06:26:47;9.53;;;8.73;;
13951;SDS011;39535;52.192;9.886;2023-05-07T06:29:14;9.40;;;8.70;;
13951;SDS011;39535;52.192;9.886;2023-05-07T06:31:41;9.40;;;8.60;;
13951;SDS011;39535;52.192;9.886;2023-05-07T06:34:08;9.60;;;8.87;;
13951;SDS011;39535;52.192;9.886;2023-05-07T06:36:34;9.20;;;8.47;;
13951;SDS011;39535;52.192;9.886;2023-05-07T06:39:01;8.97;;;8.27;;
13951;SDS011;39535;52.192;9.886;2023-05-07T06:41:27;8.43;;;7.83;;
13951;SDS011;39535;52.192;9.886;2023-05-07T06:43:54;8.60;;;7.90;;
13951;SDS011;39535;52.192;9.886;2023-05-07T06:46:20;8.10;;;7.50;;
13951;SDS011;39535;52.192;9.886;2023-05-07T06:48:48;8.27;;;7.63;;
13951;SDS011;39535;52.192;9.886;2023-05-07T06:51:14;8.00;;;7.40;;
13951;SDS011;39535;52.192;9.886;2023-05-07T06:53:40;7.67;;;7.10;;
13951;SDS011;39535;52.192;9.886;2023-05-07T06:56:07;7.93;;;7.33;;
13951;SDS011;39535;52.192;9.886;2023-05-07T06:58:33;8.00;;;7.40;;
13951;SDS011;39535;52.192;9.886;2023-05-07T07:00:59;8.33;;;7.63;;
13951;SDS011;39535;52.192;9.886;2023-05-07T07:03:26;7.57;;;6.97;;
13951;SDS011;39535;52.192;9.886;2023-05-07T07:05:53;8.10;;;7.50;;
13951;SDS011;39535;52.192;9.886;2023-05-07T07:08:21;7.37;;;6.83;;
13951;SDS011;39535;52.192;9.886;2023-05-07T07:10:48;7.33;;;6.73;;
13951;SDS011;39535;52.192;9.886;2023-05-07T07:13:14;8.17;;;7.47;;
13951;SDS011;39535;52.192;9.886;2023-05-07T07:15:41;7.67;;;7.03;;
13951;SDS011;39535;52.192;9.886;2023-05-07T07:18:07;6.83;;;6.33;;
13951;SDS011;39535;52.192;9.886;2023-05-07T07:20:33;8.20;;;7.60;;
13951;SDS011;39535;52.192;9.886;2023-05-07T07:23:01;8.00;;;7.40;;
13951;SDS011;39535;52.192;9.886;2023-05-07T07:25:27;7.67;;;7.07;;
13951;SDS011;39535;52.192;9.886;2023-05-07T07:27:53;7.67;;;7.07;;
13951;SDS011;39535;52.192;9.886;2023-05-07T07:30:20;8.13;;;7.53;;
13951;SDS011;39535;52.192;9.886;2023-05-07T07:32:46;7.40;;;6.90;;
13951;SDS011;39535;52.192;9.886;2023-05-07T07:35:13;7.60;;;7.10;;
13951;SDS011;39535;52.192;9.886;2023-05-07T07:37:39;7.90;;;6.70;;
13951;SDS011;39535;52.192;9.886;2023-05-07T07:40:07;7.80;;;7.23;;
13951;SDS011;39535;52.192;9.886;2023-05-07T07:42:34;7.23;;;6.67;;
13951;SDS011;39535;52.192;9.886;2023-05-07T07:45:01;7.30;;;6.80;;
13951;SDS011;39535;52.192;9.886;2023-05-07T07:47:27;7.80;;;7.30;;
13951;SDS011;39535;52.192;9.886;2023-05-07T07:49:54;7.67;;;7.17;;
13951;SDS011;39535;52.192;9.886;2023-05-07T07:52:20;7.70;;;7.10;;
13951;SDS011;39535;52.192;9.886;2023-05-07T07:54:46;7.70;;;7.10;;
13951;SDS011;39535;52.192;9.886;2023-05-07T07:57:14;8.70;;;7.53;;
13951;SDS011;39535;52.192;9.886;2023-05-07T07:59:41;8.50;;;7.90;;
13951;SDS011;39535;52.192;9.886;2023-05-07T08:02:08;10.47;;;9.67;;
13951;SDS011;39535;52.192;9.886;2023-05-07T08:04:34;10.30;;;9.57;;
13951;SDS011;39535;52.192;9.886;2023-05-07T08:07:02;10.77;;;9.97;;
13951;SDS011;39535;52.192;9.886;2023-05-07T08:09:28;10.70;;;9.97;;
13951;SDS011;39535;52.192;9.886;2023-05-07T08:11:54;11.68;;;10.88;;
13951;SDS011;39535;52.192;9.886;2023-05-07T08:14:22;11.30;;;10.50;;
13951;SDS011;39535;52.192;9.886;2023-05-07T08:16:49;10.63;;;9.93;;
13951;SDS011;39535;52.192;9.886;2023-05-07T08:19:15;10.83;;;10.03;;
13951;SDS011;39535;52.192;9.886;2023-05-07T08:21:41;10.93;;;10.13;;
13951;SDS011;39535;52.192;9.886;2023-05-07T08:24:07;10.63;;;9.87;;
13951;SDS011;39535;52.192;9.886;2023-05-07T08:26:34;11.20;;;10.40;;
13951;SDS011;39535;52.192;9.886;2023-05-07T08:29:00;10.23;;;9.53;;
13951;SDS011;39535;52.192;9.886;2023-05-07T08:31:28;10.50;;;9.70;;
13951;SDS011;39535;52.192;9.886;2023-05-07T08:33:55;9.80;;;9.10;;
13951;SDS011;39535;52.192;9.886;2023-05-07T08:36:21;9.47;;;8.77;;
13951;SDS011;39535;52.192;9.886;2023-05-07T08:38:47;10.40;;;9.60;;
13951;SDS011;39535;52.192;9.886;2023-05-07T08:41:14;10.10;;;9.40;;
13951;SDS011;39535;52.192;9.886;2023-05-07T08:43:41;9.87;;;9.17;;
13951;SDS011;39535;52.192;9.886;2023-05-07T08:46:08;9.60;;;8.90;;
13951;SDS011;39535;52.192;9.886;2023-05-07T08:48:36;9.47;;;8.77;;
13951;SDS011;39535;52.192;9.886;2023-05-07T08:51:03;10.00;;;9.30;;
13951;SDS011;39535;52.192;9.886;2023-05-07T08:53:29;9.13;;;8.53;;
13951;SDS011;39535;52.192;9.886;2023-05-07T08:55:56;9.73;;;8.93;;
13951;SDS011;39535;52.192;9.886;2023-05-07T08:58:22;9.57;;;8.80;;
13951;SDS011;39535;52.192;9.886;2023-05-07T09:00:49;8.53;;;7.93;;
13951;SDS011;39535;52.192;9.886;2023-05-07T09:03:17;9.50;;;8.80;;
13951;SDS011;39535;52.192;9.886;2023-05-07T09:05:45;8.60;;;7.80;;
13951;SDS011;39535;52.192;9.886;2023-05-07T09:08:14;9.03;;;8.33;;
13951;SDS011;39535;52.192;9.886;2023-05-07T09:10:41;8.23;;;7.63;;
13951;SDS011;39535;52.192;9.886;2023-05-07T09:13:07;7.97;;;7.30;;
13951;SDS011;39535;52.192;9.886;2023-05-07T09:15:35;8.17;;;7.40;;
13951;SDS011;39535;52.192;9.886;2023-05-07T09:18:02;8.47;;;7.87;;
13951;SDS011;39535;52.192;9.886;2023-05-07T09:20:29;9.50;;;8.80;;
13951;SDS011;39535;52.192;9.886;2023-05-07T09:22:58;10.43;;;9.63;;
13951;SDS011;39535;52.192;9.886;2023-05-07T09:25:27;9.67;;;8.97;;
13951;SDS011;39535;52.192;9.886;2023-05-07T09:27:55;9.53;;;8.90;;
13951;SDS011;39535;52.192;9.886;2023-05-07T09:30:21;10.87;;;10.07;;
13951;SDS011;39535;52.192;9.886;2023-05-07T09:32:47;11.20;;;10.40;;
13951;SDS011;39535;52.192;9.886;2023-05-07T09:35:14;10.20;;;9.50;;
13951;SDS011;39535;52.192;9.886;2023-05-07T09:37:41;11.70;;;10.80;;
13951;SDS011;39535;52.192;9.886;2023-05-07T09:40:10;10.87;;;10.07;;
13951;SDS011;39535;52.192;9.886;2023-05-07T09:42:46;10.47;;;9.77;;
13951;SDS011;39535;52.192;9.886;2023-05-07T09:45:13;12.30;;;11.37;;
13951;SDS011;39535;52.192;9.886;2023-05-07T09:47:39;12.00;;;11.20;;
13951;SDS011;39535;52.192;9.886;2023-05-07T09:50:10;11.20;;;10.40;;
13951;SDS011;39535;52.192;9.886;2023-05-07T09:52:41;11.43;;;10.53;;
13951;SDS011;39535;52.192;9.886;2023-05-07T09:55:09;12.53;;;11.63;;
13951;SDS011;39535;52.192;9.886;2023-05-07T09:57:37;12.80;;;11.90;;
13951;SDS011;39535;52.192;9.886;2023-05-07T10:00:05;11.83;;;11.03;;
13951;SDS011;39535;52.192;9.886;2023-05-07T10:02:33;12.37;;;11.47;;
13951;SDS011;39535;52.192;9.886;2023-05-07T10:05:01;12.93;;;12.03;;
13951;SDS011;39535;52.192;9.886;2023-05-07T10:07:28;13.73;;;12.70;;
13951;SDS011;39535;52.192;9.886;2023-05-07T10:09:55;13.30;;;12.30;;
13951;SDS011;39535;52.192;9.886;2023-05-07T10:12:25;13.73;;;12.73;;
13951;SDS011;39535;52.192;9.886;2023-05-07T10:14:52;13.10;;;12.10;;
13951;SDS011;39535;52.192;9.886;2023-05-07T10:17:20;11.87;;;11.07;;
13951;SDS011;39535;52.192;9.886;2023-05-07T10:19:48;13.33;;;12.10;;
13951;SDS011;39535;52.192;9.886;2023-05-07T10:22:16;12.37;;;11.57;;
13951;SDS011;39535;52.192;9.886;2023-05-07T10:24:43;12.03;;;11.23;;
13951;SDS011;39535;52.192;9.886;2023-05-07T10:27:12;11.87;;;11.07;;
13951;SDS011;39535;52.192;9.886;2023-05-07T10:29:45;12.00;;;11.20;;
13951;SDS011;39535;52.192;9.886;2023-05-07T10:32:28;12.37;;;11.47;;
13951;SDS011;39535;52.192;9.886;2023-05-07T10:35:02;12.20;;;11.30;;
13951;SDS011;39535;52.192;9.886;2023-05-07T10:37:32;12.43;;;11.53;;
13951;SDS011;39535;52.192;9.886;2023-05-07T10:39:59;12.00;;;11.17;;
13951;SDS011;39535;52.192;9.886;2023-05-07T10:42:27;12.47;;;11.57;;
13951;SDS011;39535;52.192;9.886;2023-05-07T10:44:54;12.40;;;11.40;;
13951;SDS011;39535;52.192;9.886;2023-05-07T10:47:21;12.20;;;11.30;;
13951;SDS011;39535;52.192;9.886;2023-05-07T10:58:51;11.30;;;10.57;;
13951;SDS011;39535;52.192;9.886;2023-05-07T11:01:30;11.63;;;10.83;;
13951;SDS011;39535;52.192;9.886;2023-05-07T11:04:15;10.93;;;10.23;;
13951;SDS011;39535;52.192;9.886;2023-05-07T11:06:43;10.87;;;10.17;;
13951;SDS011;39535;52.192;9.886;2023-05-07T11:09:54;10.47;;;9.77;;
13951;SDS011;39535;52.192;9.886;2023-05-07T11:12:46;10.23;;;9.53;;
13951;SDS011;39535;52.192;9.886;2023-05-07T11:18:15;10.03;;;9.43;;
13951;SDS011;39535;52.192;9.886;2023-05-07T11:20:49;11.13;;;10.33;;
13951;SDS011;39535;52.192;9.886;2023-05-07T11:26:42;10.13;;;9.43;;
13951;SDS011;39535;52.192;9.886;2023-05-07T11:29:11;9.10;;;8.50;;
13951;SDS011;39535;52.192;9.886;2023-05-07T11:31:38;10.07;;;9.37;;
13951;SDS011;39535;52.192;9.886;2023-05-07T11:34:07;10.40;;;9.70;;
13951;SDS011;39535;52.192;9.886;2023-05-07T11:36:34;9.97;;;9.27;;
13951;SDS011;39535;52.192;9.886;2023-05-07T11:39:12;10.20;;;9.50;;
13951;SDS011;39535;52.192;9.886;2023-05-07T11:41:49;9.73;;;9.03;;
13951;SDS011;39535;52.192;9.886;2023-05-07T11:44:15;10.90;;;10.20;;
13951;SDS011;39535;52.192;9.886;2023-05-07T11:46:42;10.23;;;9.43;;
13951;SDS011;39535;52.192;9.886;2023-05-07T11:49:11;10.37;;;9.63;;
13951;SDS011;39535;52.192;9.886;2023-05-07T11:51:37;9.77;;;9.17;;
13951;SDS011;39535;52.192;9.886;2023-05-07T11:54:05;9.10;;;8.50;;
13951;SDS011;39535;52.192;9.886;2023-05-07T11:56:33;9.87;;;9.17;;
13951;SDS011;39535;52.192;9.886;2023-05-07T11:59:00;9.30;;;8.60;;
13951;SDS011;39535;52.192;9.886;2023-05-07T12:01:27;10.00;;;9.30;;
13951;SDS011;39535;52.192;9.886;2023-05-07T12:03:53;9.50;;;8.90;;
13951;SDS011;39535;52.192;9.886;2023-05-07T12:06:21;8.53;;;7.83;;
13951;SDS011;39535;52.192;9.886;2023-05-07T12:08:47;7.80;;;7.30;;
13951;SDS011;39535;52.192;9.886;2023-05-07T12:11:14;8.83;;;8.17;;
13951;SDS011;39535;52.192;9.886;2023-05-07T12:13:43;8.00;;;7.60;;
13951;SDS011;39535;52.192;9.886;2023-05-07T12:16:09;7.50;;;7.00;;
13951;SDS011;39535;52.192;9.886;2023-05-07T12:18:36;7.47;;;6.97;;
13951;SDS011;39535;52.192;9.886;2023-05-07T12:21:04;7.60;;;7.10;;
13951;SDS011;39535;52.192;9.886;2023-05-07T12:23:33;9.33;;;7.87;;
13951;SDS011;39535;52.192;9.886;2023-05-07T12:26:00;7.97;;;7.47;;
13951;SDS011;39535;52.192;9.886;2023-05-07T12:28:27;7.13;;;6.63;;
13951;SDS011;39535;52.192;9.886;2023-05-07T12:30:53;7.77;;;7.37;;
13951;SDS011;39535;52.192;9.886;2023-05-07T12:33:23;7.77;;;7.27;;
13951;SDS011;39535;52.192;9.886;2023-05-07T12:35:50;7.23;;;6.73;;
13951;SDS011;39535;52.192;9.886;2023-05-07T12:38:17;7.50;;;7.03;;
13951;SDS011;39535;52.192;9.886;2023-05-07T12:40:46;8.17;;;7.57;;
13951;SDS011;39535;52.192;9.886;2023-05-07T12:43:16;8.00;;;7.50;;
13951;SDS011;39535;52.192;9.886;2023-05-07T12:45:43;8.10;;;7.60;;
13951;SDS011;39535;52.192;9.886;2023-05-07T12:48:10;7.50;;;7.10;;
13951;SDS011;39535;52.192;9.886;2023-05-07T12:50:37;8.60;;;8.10;;
13951;SDS011;39535;52.192;9.886;2023-05-07T12:53:03;8.43;;;7.83;;
13951;SDS011;39535;52.192;9.886;2023-05-07T12:55:31;9.30;;;8.70;;
13951;SDS011;39535;52.192;9.886;2023-05-07T12:58:00;9.50;;;8.90;;
13951;SDS011;39535;52.192;9.886;2023-05-07T13:00:34;9.97;;;9.37;;
13951;SDS011;39535;52.192;9.886;2023-05-07T13:03:01;10.30;;;9.70;;
13951;SDS011;39535;52.192;9.886;2023-05-07T13:05:28;10.43;;;9.63;;
13951;SDS011;39535;52.192;9.886;2023-05-07T13:07:54;11.40;;;10.60;;
13951;SDS011;39535;52.192;9.886;2023-05-07T13:10:21;11.10;;;10.40;;
13951;SDS011;39535;52.192;9.886;2023-05-07T13:12:47;11.17;;;10.47;;
13951;SDS011;39535;52.192;9.886;2023-05-07T13:15:15;10.80;;;10.20;;
13951;SDS011;39535;52.192;9.886;2023-05-07T13:17:42;11.03;;;10.37;;
13951;SDS011;39535;52.192;9.886;2023-05-07T13:20:09;10.60;;;9.80;;
13951;SDS011;39535;52.192;9.886;2023-05-07T13:22:36;10.40;;;9.80;;
13951;SDS011;39535;52.192;9.886;2023-05-07T13:25:03;10.60;;;10.00;;
13951;SDS011;39535;52.192;9.886;2023-05-07T13:27:30;11.07;;;10.37;;
13951;SDS011;39535;52.192;9.886;2023-05-07T13:29:56;10.63;;;9.93;;
13951;SDS011;39535;52.192;9.886;2023-05-07T13:32:24;9.97;;;9.43;;
13951;SDS011;39535;52.192;9.886;2023-05-07T13:34:52;10.53;;;9.90;;
13951;SDS011;39535;52.192;9.886;2023-05-07T13:37:18;9.70;;;9.20;;
13951;SDS011;39535;52.192;9.886;2023-05-07T13:39:45;10.90;;;10.27;;
13951;SDS011;39535;52.192;9.886;2023-05-07T13:42:11;10.33;;;9.73;;
13951;SDS011;39535;52.192;9.886;2023-05-07T13:44:37;10.13;;;9.53;;
13951;SDS011;39535;52.192;9.886;2023-05-07T13:47:04;10.47;;;9.87;;
13951;SDS011;39535;52.192;9.886;2023-05-07T13:49:32;10.77;;;10.17;;
13951;SDS011;39535;52.192;9.886;2023-05-07T13:51:58;9.93;;;9.27;;
13951;SDS011;39535;52.192;9.886;2023-05-07T13:54:24;10.23;;;9.47;;
13951;SDS011;39535;52.192;9.886;2023-05-07T13:56:51;10.00;;;9.40;;
13951;SDS011;39535;52.192;9.886;2023-05-07T13:59:17;9.53;;;9.03;;
13951;SDS011;39535;52.192;9.886;2023-05-07T14:01:44;9.40;;;8.80;;
13951;SDS011;39535;52.192;9.886;2023-05-07T14:04:10;9.80;;;9.20;;
13951;SDS011;39535;52.192;9.886;2023-05-07T14:06:38;9.17;;;8.60;;
13951;SDS011;39535;52.192;9.886;2023-05-07T14:09:04;9.63;;;8.97;;
13951;SDS011;39535;52.192;9.886;2023-05-07T14:11:31;9.53;;;8.80;;
13951;SDS011;39535;52.192;9.886;2023-05-07T14:13:57;8.47;;;7.97;;
13951;SDS011;39535;52.192;9.886;2023-05-07T14:16:24;7.57;;;7.17;;
13951;SDS011;39535;52.192;9.886;2023-05-07T14:18:50;9.13;;;8.53;;
13951;SDS011;39535;52.192;9.886;2023-05-07T14:21:16;8.70;;;8.20;;
13951;SDS011;39535;52.192;9.886;2023-05-07T14:23:44;9.17;;;8.57;;
13951;SDS011;39535;52.192;9.886;2023-05-07T14:26:10;8.50;;;8.00;;
13951;SDS011;39535;52.192;9.886;2023-05-07T14:28:37;8.77;;;8.27;;
13951;SDS011;39535;52.192;9.886;2023-05-07T14:31:04;8.80;;;8.20;;
13951;SDS011;39535;52.192;9.886;2023-05-07T14:33:31;8.57;;;8.07;;
13951;SDS011;39535;52.192;9.886;2023-05-07T14:35:57;8.47;;;7.93;;
13951;SDS011;39535;52.192;9.886;2023-05-07T14:38:23;8.80;;;8.20;;
13951;SDS011;39535;52.192;9.886;2023-05-07T14:40:51;9.50;;;8.90;;
13951;SDS011;39535;52.192;9.886;2023-05-07T14:43:20;9.27;;;8.70;;
13951;SDS011;39535;52.192;9.886;2023-05-07T14:45:47;9.47;;;8.87;;
13951;SDS011;39535;52.192;9.886;2023-05-07T14:48:13;9.13;;;8.63;;